Buoy 41936

sailwx.info

Track history (hours):
 
Tides and Currents Weather Stations Pressure Air Temp Water Temp Dewpoint Dewpoint Depression Visibility Wind Speed Wind Dir Waves Ship Positions

Drifting buoy 41936

Last reported at 2017-Oct-12 20:00 UTC. Time now 2017-Nov-22 03:20 UTC.
Position N 48°29' W 007°09'.
Warning: this ship's position is 40 days out of date.

Barometer 1020.7 mb

Date/timePositionNaut miles runAvg speedWind from/ knotsBaromVisibWave heightAir tempDewpointWater temp
2017-Oct-12 20:00N 48°29' W 007°09'1 0.7 1020.7
2017-Oct-12 19:00N 48°28' W 007°08'2 1.7 1020.7
2017-Oct-12 18:00N 48°27' W 007°10'1 0.6 1020.5
2017-Oct-12 17:00N 48°26' W 007°10'0 0.0 1020.5
2017-Oct-12 16:00N 48°26' W 007°10'1 0.7 1020.5
2017-Oct-12 15:00N 48°26' W 007°10'1 1.3 1020.7
2017-Oct-12 14:00N 48°27' W 007°09'2 0.2 1020.8
2017-Oct-12 07:00N 48°27' W 007°11'1 1.4 1019.6
2017-Oct-12 06:00N 48°26' W 007°13'0 0.0 1019.5
2017-Oct-12 05:00N 48°26' W 007°13'1 1.3 1019.4
2017-Oct-12 04:00N 48°25' W 007°13'2 2.4 1019.1
2017-Oct-12 03:00N 48°27' W 007°13'2 2.4 1018.9
2017-Oct-12 02:00N 48°25' W 007°13'2 0.6 1019.1
2017-Oct-11 22:00N 48°27' W 007°14'1 0.8 1017.9
2017-Oct-11 21:00N 48°27' W 007°13'1 1.2 1017.3
2017-Oct-11 20:00N 48°27' W 007°14'1 0.8 1016.7
2017-Oct-11 19:00N 48°27' W 007°16'1 0.6 1015.7
2017-Oct-11 18:00N 48°26' W 007°16'1 1.0 1014.7
2017-Oct-11 17:00N 48°26' W 007°17'1 0.7 1014.1
2017-Oct-11 16:00N 48°25' W 007°16'0 0.4 1013.6
2017-Oct-11 15:00N 48°25' W 007°17'1 0.6 1013.3
2017-Oct-11 14:00N 48°25' W 007°17'1 0.7 1013.1
2017-Oct-11 12:00N 48°26' W 007°16'1 1.3 1012.7
2017-Oct-11 11:00N 48°27' W 007°15'1 1.2 1012.4
2017-Oct-11 10:00N 48°27' W 007°17'2 1.7 1012.1
2017-Oct-11 09:00N 48°28' W 007°19'0 0.4 1011.8
2017-Oct-11 08:00N 48°28' W 007°20'1 1.0 1011.9
2017-Oct-11 07:00N 48°27' W 007°21'1 1.4 1011.9
2017-Oct-11 06:00N 48°26' W 007°22'1 1.0 1012.2
2017-Oct-11 05:00N 48°25' W 007°23'1 1.3 1012.5
2017-Oct-11 04:00N 48°24' W 007°24'1 0.6 1013.1
2017-Oct-11 03:00N 48°23' W 007°24'0 0.0 1013.7
2017-Oct-11 02:00N 48°23' W 007°24'2 0.5 1014.5
2017-Oct-10 22:00N 48°25' W 007°23'1 0.6 1016.3
2017-Oct-10 21:00N 48°26' W 007°23'2 1.6 1016.4
2017-Oct-10 20:00N 48°26' W 007°25'1 0.8 1016.4
2017-Oct-10 19:00N 48°26' W 007°26'3 2.7 1016.7
2017-Oct-10 18:00N 48°24' W 007°29'1 1.2 1016.8
2017-Oct-10 17:00N 48°23' W 007°29'0 0.0 1017.0
2017-Oct-10 16:00N 48°23' W 007°29'2 1.8 1017.1
2017-Oct-10 15:00N 48°21' W 007°30'6 6.3 1017.7
2017-Oct-10 14:00N 48°25' W 007°38'1 0.1 1017.9
2017-Oct-09 18:00N 48°24' W 007°40'1 1.3 1020.1
2017-Oct-09 17:00N 48°23' W 007°40'0 0.4 1019.9
2017-Oct-09 16:00N 48°23' W 007°41'2 1.8 1020.1
2017-Oct-09 15:00N 48°21' W 007°40'0 0.0 1020.7
2017-Oct-09 14:00N 48°21' W 007°40'2 2.2 1021.1
2017-Oct-09 13:00N 48°23' W 007°38'0 0.0 1021.4
2017-Oct-09 12:00N 48°23' W 007°38'0 0.0 1022.1
2017-Oct-09 11:00N 48°23' W 007°38'2 1.8 1021.8
2017-Oct-09 10:00N 48°25' W 007°38'2 2.0 1021.9
2017-Oct-09 09:00N 48°26' W 007°39'2 1.7 1021.5
2017-Oct-09 08:00N 48°28' W 007°41'0 0.0 1021.2
2017-Oct-09 07:00N 48°28' W 007°41'2 1.7 1020.9
2017-Oct-09 06:00N 48°27' W 007°43'1 0.6 1020.6
2017-Oct-09 05:00N 48°26' W 007°43'10 4.8 1020.6
2017-Oct-09 03:00N 48°31' W 007°56'0 0.0 1021.3
2017-Oct-07 15:00N 48°31' W 007°56'3 2.9 1022.5
2017-Oct-07 14:00N 48°29' W 007°58'1 0.6 1023.3
2017-Oct-07 13:00N 48°28' W 007°58'0 0.0 1023.8
2017-Oct-07 12:00N 48°28' W 007°58'2 1.0 1024.5
2017-Oct-07 10:00N 48°29' W 007°56'3 3.0 1025.2
2017-Oct-07 09:00N 48°32' W 007°56'0 0.0 1025.0
2017-Oct-07 08:00N 48°32' W 007°56'1 1.3 1025.1
2017-Oct-07 07:00N 48°33' W 007°58'0 0.0 1024.9
2017-Oct-07 06:00N 48°33' W 007°58'2 1.7 1025.1
2017-Oct-07 05:00N 48°32' W 008°01'1 0.7 1025.1
2017-Oct-07 04:00N 48°32' W 008°01'0 0.0 1025.4
2017-Oct-07 03:00N 48°32' W 008°01'4 0.7 1026.1
2017-Oct-06 22:00N 48°28' W 008°01'1 0.7 1028.5
2017-Oct-06 21:00N 48°29' W 008°00'1 1.3 1028.3
2017-Oct-06 20:00N 48°30' W 007°59'1 1.2 1028.3
2017-Oct-06 19:00N 48°31' W 007°59'2 1.7 1028.0
2017-Oct-06 18:00N 48°32' W 008°02'3 2.8 1027.7
2017-Oct-06 17:00N 48°31' W 008°06'0 0.0 1027.8
2017-Oct-06 16:00N 48°31' W 008°06'3 2.7 1028.2
2017-Oct-06 15:00N 48°29' W 008°09'0 0.0 1028.4
2017-Oct-06 14:00N 48°29' W 008°09'1 1.3 1029.4
2017-Oct-06 13:00N 48°28' W 008°08'1 1.2 1029.3
2017-Oct-06 12:00N 48°27' W 008°08'1 1.2 1029.6
2017-Oct-06 11:00N 48°27' W 008°07'2 1.2 1030.1
2017-Oct-06 09:00N 48°28' W 008°04'2 1.8 1029.7
2017-Oct-06 08:00N 48°30' W 008°04'1 1.3 1029.0
2017-Oct-06 07:00N 48°31' W 008°04'1 0.7 1028.6
2017-Oct-06 06:00N 48°32' W 008°04'1 0.7 1028.2
2017-Oct-06 05:00N 48°32' W 008°04'1 0.8 1027.8
2017-Oct-06 04:00N 48°32' W 008°05'0 0.0 1028.0
2017-Oct-06 03:00N 48°32' W 008°05'2 0.5 1028.0
2017-Oct-05 22:00N 48°30' W 008°05'1 1.3 1028.2
2017-Oct-05 21:00N 48°31' W 008°03'2 1.8 1028.0
2017-Oct-05 20:00N 48°32' W 008°03'1 1.3 1027.4
2017-Oct-05 19:00N 48°33' W 008°01'1 0.7 1026.9
2017-Oct-05 18:00N 48°34' W 008°02'1 1.3 1026.1
2017-Oct-05 17:00N 48°34' W 008°04'0 0.4 1025.9
2017-Oct-05 16:00N 48°34' W 008°04'1 1.3 1025.5
2017-Oct-05 15:00N 48°34' W 008°06'1 1.2 1025.3
2017-Oct-05 14:00N 48°32' W 008°06'0 0.0 1025.2
2017-Oct-05 13:00N 48°32' W 008°06'0 0.0 1025.4
2017-Oct-05 12:00N 48°32' W 008°06'0 0.4 1025.6
2017-Oct-05 11:00N 48°32' W 008°07'2 2.3 1025.4
2017-Oct-05 10:00N 48°34' W 008°04'1 1.3 1025.3
2017-Oct-05 09:00N 48°35' W 008°04'0 0.0 1024.7
2017-Oct-05 08:00N 48°35' W 008°04'1 1.0 1024.1
2017-Oct-05 07:00N 48°35' W 008°05'1 1.2 1023.5
2017-Oct-05 06:00N 48°37' W 008°05'0 0.4 1023.4
2017-Oct-05 05:00N 48°37' W 008°06'   1023.3
Track history (hours):
 
Tides and Currents Weather Stations Pressure Air Temp Water Temp Dewpoint Dewpoint Depression Visibility Wind Speed Wind Dir Waves Ship Positions

Drifting buoy 41936

Last reported at 2017-Oct-12 20:00 UTC. Time now 2017-Nov-22 03:20 UTC.
Position N 48°29' W 007°09'.
Warning: this ship's position is 40 days out of date.

Barometer 1020.7 mb

Date/timePositionNaut miles runAvg speedWind from/ knotsBaromVisibWave heightAir tempDewpointWater temp
2017-Oct-12 20:00N 48°29' W 007°09'1 0.7 1020.7
2017-Oct-12 19:00N 48°28' W 007°08'2 1.7 1020.7
2017-Oct-12 18:00N 48°27' W 007°10'1 0.6 1020.5
2017-Oct-12 17:00N 48°26' W 007°10'0 0.0 1020.5
2017-Oct-12 16:00N 48°26' W 007°10'1 0.7 1020.5
2017-Oct-12 15:00N 48°26' W 007°10'1 1.3 1020.7
2017-Oct-12 14:00N 48°27' W 007°09'2 0.2 1020.8
2017-Oct-12 07:00N 48°27' W 007°11'1 1.4 1019.6
2017-Oct-12 06:00N 48°26' W 007°13'0 0.0 1019.5
2017-Oct-12 05:00N 48°26' W 007°13'1 1.3 1019.4
2017-Oct-12 04:00N 48°25' W 007°13'2 2.4 1019.1
2017-Oct-12 03:00N 48°27' W 007°13'2 2.4 1018.9
2017-Oct-12 02:00N 48°25' W 007°13'2 0.6 1019.1
2017-Oct-11 22:00N 48°27' W 007°14'1 0.8 1017.9
2017-Oct-11 21:00N 48°27' W 007°13'1 1.2 1017.3
2017-Oct-11 20:00N 48°27' W 007°14'1 0.8 1016.7
2017-Oct-11 19:00N 48°27' W 007°16'1 0.6 1015.7
2017-Oct-11 18:00N 48°26' W 007°16'1 1.0 1014.7
2017-Oct-11 17:00N 48°26' W 007°17'1 0.7 1014.1
2017-Oct-11 16:00N 48°25' W 007°16'0 0.4 1013.6
2017-Oct-11 15:00N 48°25' W 007°17'1 0.6 1013.3
2017-Oct-11 14:00N 48°25' W 007°17'1 0.7 1013.1
2017-Oct-11 12:00N 48°26' W 007°16'1 1.3 1012.7
2017-Oct-11 11:00N 48°27' W 007°15'1 1.2 1012.4
2017-Oct-11 10:00N 48°27' W 007°17'2 1.7 1012.1
2017-Oct-11 09:00N 48°28' W 007°19'0 0.4 1011.8
2017-Oct-11 08:00N 48°28' W 007°20'1 1.0 1011.9
2017-Oct-11 07:00N 48°27' W 007°21'1 1.4 1011.9
2017-Oct-11 06:00N 48°26' W 007°22'1 1.0 1012.2
2017-Oct-11 05:00N 48°25' W 007°23'1 1.3 1012.5
2017-Oct-11 04:00N 48°24' W 007°24'1 0.6 1013.1
2017-Oct-11 03:00N 48°23' W 007°24'0 0.0 1013.7
2017-Oct-11 02:00N 48°23' W 007°24'2 0.5 1014.5
2017-Oct-10 22:00N 48°25' W 007°23'1 0.6 1016.3
2017-Oct-10 21:00N 48°26' W 007°23'2 1.6 1016.4
2017-Oct-10 20:00N 48°26' W 007°25'1 0.8 1016.4
2017-Oct-10 19:00N 48°26' W 007°26'3 2.7 1016.7
2017-Oct-10 18:00N 48°24' W 007°29'1 1.2 1016.8
2017-Oct-10 17:00N 48°23' W 007°29'0 0.0 1017.0
2017-Oct-10 16:00N 48°23' W 007°29'2 1.8 1017.1
2017-Oct-10 15:00N 48°21' W 007°30'6 6.3 1017.7
2017-Oct-10 14:00N 48°25' W 007°38'1 0.1 1017.9
2017-Oct-09 18:00N 48°24' W 007°40'1 1.3 1020.1
2017-Oct-09 17:00N 48°23' W 007°40'0 0.4 1019.9
2017-Oct-09 16:00N 48°23' W 007°41'2 1.8 1020.1
2017-Oct-09 15:00N 48°21' W 007°40'0 0.0 1020.7
2017-Oct-09 14:00N 48°21' W 007°40'2 2.2 1021.1
2017-Oct-09 13:00N 48°23' W 007°38'0 0.0 1021.4
2017-Oct-09 12:00N 48°23' W 007°38'0 0.0 1022.1
2017-Oct-09 11:00N 48°23' W 007°38'2 1.8 1021.8
2017-Oct-09 10:00N 48°25' W 007°38'2 2.0 1021.9
2017-Oct-09 09:00N 48°26' W 007°39'2 1.7 1021.5
2017-Oct-09 08:00N 48°28' W 007°41'0 0.0 1021.2
2017-Oct-09 07:00N 48°28' W 007°41'2 1.7 1020.9
2017-Oct-09 06:00N 48°27' W 007°43'1 0.6 1020.6
2017-Oct-09 05:00N 48°26' W 007°43'10 4.8 1020.6
2017-Oct-09 03:00N 48°31' W 007°56'0 0.0 1021.3
2017-Oct-07 15:00N 48°31' W 007°56'3 2.9 1022.5
2017-Oct-07 14:00N 48°29' W 007°58'1 0.6 1023.3
2017-Oct-07 13:00N 48°28' W 007°58'0 0.0 1023.8
2017-Oct-07 12:00N 48°28' W 007°58'2 1.0 1024.5
2017-Oct-07 10:00N 48°29' W 007°56'3 3.0 1025.2
2017-Oct-07 09:00N 48°32' W 007°56'0 0.0 1025.0
2017-Oct-07 08:00N 48°32' W 007°56'1 1.3 1025.1
2017-Oct-07 07:00N 48°33' W 007°58'0 0.0 1024.9
2017-Oct-07 06:00N 48°33' W 007°58'2 1.7 1025.1
2017-Oct-07 05:00N 48°32' W 008°01'1 0.7 1025.1
2017-Oct-07 04:00N 48°32' W 008°01'0 0.0 1025.4
2017-Oct-07 03:00N 48°32' W 008°01'4 0.7 1026.1
2017-Oct-06 22:00N 48°28' W 008°01'1 0.7 1028.5
2017-Oct-06 21:00N 48°29' W 008°00'1 1.3 1028.3
2017-Oct-06 20:00N 48°30' W 007°59'1 1.2 1028.3
2017-Oct-06 19:00N 48°31' W 007°59'2 1.7 1028.0
2017-Oct-06 18:00N 48°32' W 008°02'3 2.8 1027.7
2017-Oct-06 17:00N 48°31' W 008°06'0 0.0 1027.8
2017-Oct-06 16:00N 48°31' W 008°06'3 2.7 1028.2
2017-Oct-06 15:00N 48°29' W 008°09'0 0.0 1028.4
2017-Oct-06 14:00N 48°29' W 008°09'1 1.3 1029.4
2017-Oct-06 13:00N 48°28' W 008°08'1 1.2 1029.3
2017-Oct-06 12:00N 48°27' W 008°08'1 1.2 1029.6
2017-Oct-06 11:00N 48°27' W 008°07'2 1.2 1030.1
2017-Oct-06 09:00N 48°28' W 008°04'2 1.8 1029.7
2017-Oct-06 08:00N 48°30' W 008°04'1 1.3 1029.0
2017-Oct-06 07:00N 48°31' W 008°04'1 0.7 1028.6
2017-Oct-06 06:00N 48°32' W 008°04'1 0.7 1028.2
2017-Oct-06 05:00N 48°32' W 008°04'1 0.8 1027.8
2017-Oct-06 04:00N 48°32' W 008°05'0 0.0 1028.0
2017-Oct-06 03:00N 48°32' W 008°05'2 0.5 1028.0
2017-Oct-05 22:00N 48°30' W 008°05'1 1.3 1028.2
2017-Oct-05 21:00N 48°31' W 008°03'2 1.8 1028.0
2017-Oct-05 20:00N 48°32' W 008°03'1 1.3 1027.4
2017-Oct-05 19:00N 48°33' W 008°01'1 0.7 1026.9
2017-Oct-05 18:00N 48°34' W 008°02'1 1.3 1026.1
2017-Oct-05 17:00N 48°34' W 008°04'0 0.4 1025.9
2017-Oct-05 16:00N 48°34' W 008°04'1 1.3 1025.5
2017-Oct-05 15:00N 48°34' W 008°06'1 1.2 1025.3
2017-Oct-05 14:00N 48°32' W 008°06'0 0.0 1025.2
2017-Oct-05 13:00N 48°32' W 008°06'0 0.0 1025.4
2017-Oct-05 12:00N 48°32' W 008°06'0 0.4 1025.6
2017-Oct-05 11:00N 48°32' W 008°07'2 2.3 1025.4
2017-Oct-05 10:00N 48°34' W 008°04'1 1.3 1025.3
2017-Oct-05 09:00N 48°35' W 008°04'0 0.0 1024.7
2017-Oct-05 08:00N 48°35' W 008°04'1 1.0 1024.1
2017-Oct-05 07:00N 48°35' W 008°05'1 1.2 1023.5
2017-Oct-05 06:00N 48°37' W 008°05'0 0.4 1023.4
2017-Oct-05 05:00N 48°37' W 008°06'   1023.3

Dump ship's entire track history